Aviation Digital Data Service (ADDS)

Output produced by METARs form (1331 UTC 15 November 2018)
found at http://www.aviationweather.gov/metar/data/
 
OAIX 151258Z 00000KT 9999 BKN120 14/M07 A3018 RMK AO2A SLP176 T01361072 $
TAF OAIX 150700Z 1507/1613 04009KT 9999 BKN220 QNH3015INS 
     BECMG 1516/1517 33006KT 9999 BKN200 QNH3014INS 
     BECMG 1607/1608 35010G15KT 9999 SCT080 BKN150 QNH3015INS TX17/1509Z
TN00/1602Z
       
OAHR 151255Z 00000KT CAVOK 10/M01 Q1024 RMK A3025 BLU
TAF OAHR 151100Z 1512/1612 26008KT 9999 FEW060 BKN090 
     BECMG 1518/1520 VRB03KT 9999 SCT070 
     BECMG 1604/1606 25008KT 9999 FEW070 SCT090
       
OAJL 151255Z 24001KT 6000 FU BKN190 17/11 A3011 RMK AO2A SLP190 T01660106
TAF OAJL 150800Z 1508/1614 15009KT 9000 HZ FEW200 QNH3009INS 
     BECMG 1513/1514 27006KT 9000 HZ SKC QNH3007INS 
     TEMPO 1513/1515 6000 FU 
     BECMG 1602/1603 32009KT 8000 HZ SKC QNH3004INS 
     TEMPO 1603/1606 3600 FU TX22/1608Z TN08/1602Z
       
OAKB 151250Z 32003KT CAVOK 11/M10 Q1023 NOSIG RMK A3021 BLU BLU
TAF OAKB 151105Z 1512/1612 VRB02KT CAVOK 
     TEMPO 1512/1515 05012KT 
     PROB30 
     TEMPO 1601/1605 5000 FU 
     BECMG 1605/1607 FEW100 
     BECMG 1609/1611 36012KT
       
OAKN 151258Z 00000KT 9999 FEW110 OVC120 18/M05 A3019 RMK AO2A SLP202 WND DATA ESTMD Q1022 PA3056 DA4115 T01751055
TAF OAKN 150700Z 1507/1613 26009KT 9999 FEW060 SCT080 QNH3017INS 
     BECMG 1601/1602 VRB06KT 9999 SCT060 QNH3020INS TX20/1511Z TN05/1522Z
       
OAMS 151250Z COR 07004KT 9999 FEW220 BKN250 11/M01 Q1025 BLU+BLU
TAF OAMS 151105Z 1512/1612 06009KT 9999 NSW SCT180 BKN220 
     BECMG 1512/1514 24006KT 9999 NSW FEW120 BKN160 
     BECMG 1517/1519 21004KT 9999 NSW SCT080 BKN120 
     BECMG 1602/1604 04010KT 9999 NSW SCT120 BKN220